createdAt,value
2023-04-02T00:01:37.855Z,17.48
2023-04-02T00:06:45.167Z,17.45
2023-04-02T00:11:50.825Z,17.38
2023-04-02T00:16:54.366Z,17.34
2023-04-02T00:21:58.584Z,17.28
2023-04-02T00:27:02.650Z,17.25
2023-04-02T00:32:05.650Z,17.21
2023-04-02T00:37:09.074Z,17.15
2023-04-02T00:42:14.109Z,17.08
2023-04-02T00:47:20.196Z,16.97
2023-04-02T00:52:25.833Z,16.98
2023-04-02T00:57:29.987Z,16.91
2023-04-02T01:02:34.124Z,16.87
2023-04-02T01:07:58.137Z,16.83
2023-04-02T01:13:09.762Z,16.78
2023-04-02T01:18:21.820Z,16.80
2023-04-02T01:23:29.569Z,16.75
2023-04-02T01:28:47.260Z,16.69
2023-04-02T01:33:50.089Z,16.71
2023-04-02T01:38:58.708Z,16.65
2023-04-02T01:44:04.612Z,16.56
2023-04-02T01:49:13.883Z,16.52
2023-04-02T01:54:18.001Z,16.50
2023-04-02T01:59:22.911Z,16.48
2023-04-02T02:04:31.049Z,16.38
2023-04-02T02:09:35.575Z,16.33
2023-04-02T02:14:40.172Z,16.40
2023-04-02T02:19:45.219Z,16.28
2023-04-02T02:24:48.095Z,16.28
2023-04-02T02:29:54.663Z,16.25
2023-04-02T02:35:01.946Z,16.16
2023-04-02T02:40:10.848Z,16.16
2023-04-02T02:45:19.074Z,16.08
2023-04-02T02:50:24.508Z,16.09
2023-04-02T02:55:32.063Z,16.08
2023-04-02T03:00:58.614Z,16.04
2023-04-02T03:06:05.290Z,16.00
2023-04-02T03:11:13.603Z,15.99
2023-04-02T03:16:22.060Z,15.91
2023-04-02T03:21:29.426Z,15.96
2023-04-02T03:26:35.810Z,15.88
2023-04-02T03:31:44.887Z,15.80
2023-04-02T03:36:53.647Z,15.79
2023-04-02T03:41:59.187Z,15.74
2023-04-02T03:47:06.680Z,15.74
2023-04-02T03:52:12.729Z,15.67
2023-04-02T03:57:24.854Z,15.62
2023-04-02T04:02:36.514Z,15.58
2023-04-02T04:07:41.371Z,15.54
2023-04-02T04:12:47.711Z,15.61
2023-04-02T04:18:02.023Z,15.63
2023-04-02T04:23:12.334Z,15.53
2023-04-02T04:28:22.164Z,15.53
2023-04-02T04:33:34.524Z,15.48
2023-04-02T04:38:44.256Z,15.46
2023-04-02T04:43:53.692Z,15.45
2023-04-02T04:49:03.149Z,15.46
2023-04-02T04:54:12.284Z,15.41
2023-04-02T04:59:19.760Z,15.36
2023-04-02T05:04:26.776Z,15.38
2023-04-02T05:09:33.645Z,15.37
2023-04-02T05:14:39.576Z,15.30
2023-04-02T05:19:47.412Z,15.25
2023-04-02T05:24:58.520Z,15.30
2023-04-02T05:30:08.515Z,15.24
2023-04-02T05:35:18.298Z,15.21
2023-04-02T05:40:24.541Z,15.15
2023-04-02T05:45:31.502Z,15.10
2023-04-02T05:50:43.064Z,15.14
2023-04-02T05:55:54.672Z,15.41
2023-04-02T06:01:03.941Z,15.86
2023-04-02T06:06:15.478Z,16.39
2023-04-02T06:11:20.824Z,16.80
2023-04-02T06:16:27.694Z,17.21
2023-04-02T06:21:32.777Z,17.39
2023-04-02T06:26:38.097Z,17.67
2023-04-02T06:31:48.326Z,17.86
2023-04-02T06:36:56.941Z,17.97
2023-04-02T06:42:02.833Z,18.04
2023-04-02T06:47:31.393Z,18.08
2023-04-02T06:52:37.651Z,18.10
2023-04-02T06:57:43.110Z,18.06
2023-04-02T07:02:47.235Z,18.08
2023-04-02T07:07:51.842Z,18.08
2023-04-02T07:12:54.785Z,17.93
2023-04-02T07:17:59.670Z,17.96
2023-04-02T07:23:05.020Z,17.83
2023-04-02T07:28:07.726Z,17.88
2023-04-02T07:39:28.850Z,17.74
2023-04-02T07:44:31.498Z,17.61
2023-04-02T07:49:34.230Z,17.50
2023-04-02T07:54:38.427Z,17.44
2023-04-02T07:59:41.293Z,17.44
2023-04-02T08:04:44.024Z,17.33
2023-04-02T08:09:48.089Z,17.20
2023-04-02T08:14:50.783Z,17.21
2023-04-02T08:19:55.039Z,17.10
2023-04-02T08:25:43.326Z,17.05
2023-04-02T08:30:46.343Z,16.93
2023-04-02T08:35:50.470Z,16.97
2023-04-02T08:40:57.600Z,17.09
2023-04-02T08:46:08.682Z,17.27
2023-04-02T08:51:20.958Z,17.41
2023-04-02T08:56:30.543Z,17.54
2023-04-02T09:01:41.462Z,17.57
2023-04-02T09:06:44.757Z,17.41
2023-04-02T09:11:53.283Z,17.49
2023-04-02T09:16:57.485Z,17.54
2023-04-02T09:22:06.960Z,17.49
2023-04-02T09:27:19.367Z,17.58
2023-04-02T09:32:41.484Z,17.58
2023-04-02T09:37:45.173Z,17.56
2023-04-02T09:42:49.191Z,17.47
2023-04-02T09:47:53.521Z,17.50
2023-04-02T09:52:56.369Z,17.36
2023-04-02T09:58:13.564Z,17.36
2023-04-02T10:03:22.791Z,17.27
2023-04-02T10:08:28.122Z,17.35
2023-04-02T10:13:36.015Z,17.38
2023-04-02T10:18:42.776Z,17.35
2023-04-02T10:23:45.474Z,17.29
2023-04-02T10:29:06.965Z,17.20
2023-04-02T10:34:13.957Z,17.12
2023-04-02T10:39:19.756Z,17.05
2023-04-02T10:44:52.625Z,16.99
2023-04-02T10:50:05.870Z,16.90
2023-04-02T10:55:16.114Z,16.83
2023-04-02T11:00:24.118Z,16.91
2023-04-02T11:05:32.176Z,16.93
2023-04-02T11:10:36.598Z,16.88
2023-04-02T11:15:40.847Z,16.99
2023-04-02T11:20:59.117Z,16.80
2023-04-02T11:26:34.013Z,16.84
2023-04-02T11:31:38.821Z,16.80
2023-04-02T11:37:01.418Z,16.78
2023-04-02T11:42:06.804Z,16.64
2023-04-02T11:47:21.413Z,16.65
2023-04-02T11:52:27.608Z,16.63
2023-04-02T11:57:48.368Z,16.64
2023-04-02T12:03:03.389Z,16.72
2023-04-02T12:08:18.818Z,16.64
2023-04-02T12:13:22.095Z,16.68
2023-04-02T12:18:26.479Z,16.78
2023-04-02T12:23:31.287Z,16.78
2023-04-02T12:28:37.946Z,16.77
2023-04-02T12:33:42.762Z,16.66
2023-04-02T12:38:46.867Z,16.63
2023-04-02T12:43:58.287Z,16.65
2023-04-02T12:49:06.150Z,16.55
2023-04-02T12:54:14.392Z,16.55
2023-04-02T12:59:28.741Z,16.56
2023-04-02T13:04:32.770Z,16.53
2023-04-02T13:09:37.301Z,16.49
2023-04-02T13:14:40.043Z,16.44
2023-04-02T13:19:44.154Z,16.29
2023-04-02T13:24:46.857Z,16.41
2023-04-02T13:29:49.550Z,16.43
2023-04-02T13:34:53.568Z,16.28
2023-04-02T13:39:56.229Z,16.24
2023-04-02T13:44:58.908Z,16.29
2023-04-02T13:50:03.114Z,16.38
2023-04-02T13:55:06.817Z,16.30
2023-04-02T14:00:11.303Z,16.29
2023-04-02T14:05:26.579Z,16.15
2023-04-02T14:10:38.331Z,16.07
2023-04-02T14:15:52.718Z,16.00
2023-04-02T14:21:22.313Z,15.96
2023-04-02T14:26:30.687Z,15.93
2023-04-02T14:31:36.169Z,15.97
2023-04-02T14:36:48.509Z,15.91
2023-04-02T14:41:54.280Z,15.88
2023-04-02T14:47:00.682Z,15.87
2023-04-02T14:52:06.246Z,15.84
2023-04-02T14:57:16.793Z,15.85
2023-04-02T15:02:23.665Z,15.83
2023-04-02T15:07:34.730Z,15.87
2023-04-02T15:12:39.984Z,15.77
2023-04-02T15:17:42.816Z,15.80
2023-04-02T15:22:58.313Z,15.80
2023-04-02T15:28:12.470Z,15.83
2023-04-02T15:33:42.843Z,15.83
2023-04-02T15:38:49.435Z,15.69
2023-04-02T15:44:00.064Z,15.69
2023-04-02T15:49:19.968Z,15.68
2023-04-02T15:54:52.866Z,15.65
2023-04-02T16:00:16.573Z,15.61
2023-04-02T16:05:23.843Z,15.59
2023-04-02T16:10:41.083Z,15.63
2023-04-02T16:15:50.584Z,15.59
2023-04-02T16:20:54.327Z,15.49
2023-04-02T16:26:03.600Z,15.50
2023-04-02T16:31:09.393Z,15.45
2023-04-02T16:36:21.425Z,15.44
2023-04-02T16:41:38.528Z,15.44
2023-04-02T16:46:48.943Z,15.45
2023-04-02T16:51:59.729Z,15.31
2023-04-02T16:57:17.875Z,15.40
2023-04-02T17:02:28.143Z,15.37
2023-04-02T17:07:35.585Z,15.28
2023-04-02T17:12:44.482Z,15.24
2023-04-02T17:17:47.150Z,15.21
2023-04-02T17:22:50.313Z,15.23
2023-04-02T17:27:56.794Z,15.23
2023-04-02T17:32:59.614Z,15.20
2023-04-02T17:38:08.493Z,15.14
2023-04-02T17:43:19.243Z,15.08
2023-04-02T17:48:27.825Z,15.10
2023-04-02T17:53:41.061Z,15.03
2023-04-02T17:58:54.151Z,15.02
2023-04-02T18:04:08.679Z,15.00
2023-04-02T18:09:22.793Z,14.92
2023-04-02T18:14:44.215Z,14.91
2023-04-02T18:19:51.705Z,14.87
2023-04-02T18:25:17.428Z,14.88
2023-04-02T18:30:28.129Z,14.80
2023-04-02T18:35:34.238Z,14.74
2023-04-02T18:40:43.293Z,14.71
2023-04-02T18:45:53.444Z,14.69
2023-04-02T18:50:56.308Z,14.73
2023-04-02T18:56:01.475Z,15.25
2023-04-02T19:01:07.180Z,15.77
2023-04-02T19:06:11.310Z,16.27
2023-04-02T19:11:16.908Z,16.75
2023-04-02T19:16:56.216Z,17.22
2023-04-02T19:22:14.588Z,17.75
2023-04-02T19:27:24.572Z,18.17
2023-04-02T19:32:34.629Z,18.40
2023-04-02T19:37:41.158Z,18.63
2023-04-02T19:42:45.847Z,18.74
2023-04-02T19:47:49.979Z,18.81
2023-04-02T19:52:52.708Z,18.83
2023-04-02T19:58:04.462Z,18.87
2023-04-02T20:03:19.413Z,18.81
2023-04-02T20:08:27.776Z,18.78
2023-04-02T20:13:30.557Z,18.78
2023-04-02T20:18:36.955Z,18.65
2023-04-02T20:23:39.792Z,18.56
2023-04-02T20:28:42.478Z,18.48
2023-04-02T20:33:47.931Z,18.42
2023-04-02T20:38:51.828Z,18.32
2023-04-02T20:43:54.512Z,18.21
2023-04-02T20:48:58.612Z,18.09
2023-04-02T20:54:01.769Z,17.95
2023-04-02T20:59:04.539Z,17.83
2023-04-02T21:04:09.076Z,17.74
2023-04-02T21:15:53.673Z,17.46
2023-04-02T21:21:02.290Z,17.38
2023-04-02T21:26:06.512Z,17.20
2023-04-02T21:31:11.428Z,17.10
2023-04-02T21:36:16.574Z,16.99
2023-04-02T21:41:21.290Z,16.91
2023-04-02T21:46:26.038Z,16.78
2023-04-02T21:51:31.384Z,16.73
2023-04-02T21:56:35.578Z,16.70
2023-04-02T22:01:40.043Z,16.87
2023-04-02T22:06:44.511Z,16.92
2023-04-02T22:11:49.404Z,17.00
2023-04-02T22:16:52.804Z,17.01
2023-04-02T22:21:57.314Z,17.00
2023-04-02T22:27:00.185Z,17.02
2023-04-02T22:32:02.973Z,16.94
2023-04-02T22:37:07.104Z,16.92
2023-04-02T22:42:09.926Z,16.81
2023-04-02T22:47:12.723Z,16.73
2023-04-02T22:52:16.787Z,16.65
2023-04-02T22:57:19.747Z,16.55
2023-04-02T23:02:22.624Z,16.50
2023-04-02T23:07:27.248Z,16.38
2023-04-02T23:12:29.984Z,16.35
2023-04-02T23:17:32.684Z,16.24
2023-04-02T23:22:37.739Z,16.14
2023-04-02T23:27:40.499Z,16.09
2023-04-02T23:32:43.249Z,16.01
2023-04-02T23:37:49.543Z,15.94
2023-04-02T23:42:52.311Z,15.89
2023-04-02T23:47:55.259Z,15.81
2023-04-02T23:52:59.321Z,15.72
2023-04-02T23:58:02.041Z,15.62
